createdAt,value
2022-09-01T00:01:50.197Z,100.00
2022-09-01T00:04:21.136Z,100.00
2022-09-01T00:06:48.952Z,100.00
2022-09-01T00:09:18.749Z,100.00
2022-09-01T00:11:50.513Z,100.00
2022-09-01T00:14:30.405Z,100.00
2022-09-01T00:17:00.105Z,100.00
2022-09-01T00:19:27.359Z,100.00
2022-09-01T00:21:55.095Z,100.00
2022-09-01T00:24:22.347Z,100.00
2022-09-01T00:26:49.339Z,100.00
2022-09-01T00:29:16.364Z,100.00
2022-09-01T00:31:43.843Z,100.00
2022-09-01T00:34:11.290Z,100.00
2022-09-01T00:36:38.120Z,100.00
2022-09-01T00:39:06.874Z,100.00
2022-09-01T00:41:38.235Z,100.00
2022-09-01T00:44:13.480Z,100.00
2022-09-01T00:46:55.458Z,100.00
2022-09-01T00:49:35.714Z,100.00
2022-09-01T00:52:13.706Z,100.00
2022-09-01T00:54:44.860Z,100.00
2022-09-01T00:57:13.187Z,100.00
2022-09-01T00:59:50.972Z,100.00
2022-09-01T01:02:17.646Z,100.00
2022-09-01T01:04:44.400Z,100.00
2022-09-01T01:07:12.618Z,100.00
2022-09-01T01:09:43.254Z,100.00
2022-09-01T01:12:18.663Z,100.00
2022-09-01T01:14:50.468Z,100.00
2022-09-01T01:17:19.737Z,100.00
2022-09-01T01:20:08.851Z,100.00
2022-09-01T01:22:58.757Z,100.00
2022-09-01T01:25:26.481Z,100.00
2022-09-01T01:28:14.242Z,100.00
2022-09-01T01:30:52.372Z,100.00
2022-09-01T01:33:22.670Z,100.00
2022-09-01T01:35:51.768Z,100.00
2022-09-01T01:38:21.572Z,100.00
2022-09-01T01:40:49.498Z,100.00
2022-09-01T01:43:20.012Z,100.00
2022-09-01T01:46:02.478Z,100.00
2022-09-01T01:48:30.223Z,100.00
2022-09-01T01:51:00.804Z,100.00
2022-09-01T01:53:28.948Z,100.00
2022-09-01T01:55:56.063Z,100.00
2022-09-01T01:58:24.527Z,100.00
2022-09-01T02:00:54.251Z,100.00
2022-09-01T02:03:25.054Z,100.00
2022-09-01T02:05:53.502Z,100.00
2022-09-01T02:08:22.857Z,100.00
2022-09-01T02:10:51.701Z,100.00
2022-09-01T02:13:20.958Z,100.00
2022-09-01T02:15:53.822Z,100.00
2022-09-01T02:18:36.027Z,100.00
2022-09-01T02:21:10.587Z,100.00
2022-09-01T02:23:41.060Z,100.00
2022-09-01T02:26:18.522Z,100.00
2022-09-01T02:28:54.221Z,100.00
2022-09-01T02:31:23.023Z,100.00
2022-09-01T02:33:49.794Z,100.00
2022-09-01T02:36:19.289Z,100.00
2022-09-01T02:38:53.276Z,100.00
2022-09-01T02:41:23.722Z,100.00
2022-09-01T02:43:50.992Z,100.00
2022-09-01T02:46:20.304Z,100.00
2022-09-01T02:48:51.362Z,100.00
2022-09-01T02:51:20.774Z,100.00
2022-09-01T02:53:53.029Z,100.00
2022-09-01T02:56:25.015Z,100.00
2022-09-01T02:58:52.998Z,100.00
2022-09-01T03:01:32.017Z,100.00
2022-09-01T03:04:01.800Z,100.00
2022-09-01T03:06:31.419Z,100.00
2022-09-01T03:09:01.878Z,100.00
2022-09-01T03:11:31.559Z,100.00
2022-09-01T03:13:58.513Z,100.00
2022-09-01T03:16:25.182Z,100.00
2022-09-01T03:18:52.568Z,100.00
2022-09-01T03:21:20.779Z,100.00
2022-09-01T03:23:48.444Z,100.00
2022-09-01T03:26:18.650Z,100.00
2022-09-01T03:28:46.286Z,100.00
2022-09-01T03:31:13.137Z,100.00
2022-09-01T03:33:40.827Z,100.00
2022-09-01T03:36:14.771Z,100.00
2022-09-01T03:38:43.939Z,100.00
2022-09-01T03:41:13.336Z,100.00
2022-09-01T03:43:47.038Z,100.00
2022-09-01T03:46:24.370Z,100.00
2022-09-01T03:48:58.492Z,100.00
2022-09-01T03:51:26.009Z,100.00
2022-09-01T03:53:55.010Z,100.00
2022-09-01T03:56:26.281Z,100.00
2022-09-01T03:58:56.215Z,100.00
2022-09-01T04:01:25.033Z,100.00
2022-09-01T04:03:52.991Z,100.00
2022-09-01T04:06:20.619Z,100.00
2022-09-01T04:08:47.582Z,100.00
2022-09-01T04:11:18.612Z,100.00
2022-09-01T04:13:46.330Z,100.00
2022-09-01T04:16:57.494Z,100.00
2022-09-01T04:19:26.823Z,100.00
2022-09-01T04:21:56.997Z,100.00
2022-09-01T04:24:28.375Z,100.00
2022-09-01T04:27:01.748Z,100.00
2022-09-01T04:29:29.790Z,100.00
2022-09-01T04:32:03.619Z,100.00
2022-09-01T04:34:37.274Z,100.00
2022-09-01T04:37:13.217Z,100.00
2022-09-01T04:39:40.304Z,100.00
2022-09-01T04:42:09.222Z,100.00
2022-09-01T04:44:36.667Z,100.00
2022-09-01T04:47:03.592Z,100.00
2022-09-01T04:49:33.758Z,100.00
2022-09-01T04:52:00.721Z,100.00
2022-09-01T04:54:27.368Z,100.00
2022-09-01T04:56:55.023Z,100.00
2022-09-01T04:59:24.178Z,100.00
2022-09-01T05:01:51.112Z,100.00
2022-09-01T05:04:24.472Z,100.00
2022-09-01T05:06:59.801Z,100.00
2022-09-01T05:09:29.068Z,100.00
2022-09-01T05:11:57.680Z,100.00
2022-09-01T05:14:25.636Z,100.00
2022-09-01T05:16:58.808Z,100.00
2022-09-01T05:19:28.938Z,100.00
2022-09-01T05:21:57.895Z,100.00
2022-09-01T05:24:30.194Z,100.00
2022-09-01T05:26:57.739Z,100.00
2022-09-01T05:29:25.588Z,100.00
2022-09-01T05:31:53.179Z,100.00
2022-09-01T05:34:26.733Z,100.00
2022-09-01T05:36:56.056Z,100.00
2022-09-01T05:39:22.887Z,100.00
2022-09-01T05:41:49.883Z,100.00
2022-09-01T05:44:17.017Z,100.00
2022-09-01T05:46:44.678Z,100.00
2022-09-01T05:49:16.894Z,100.00
2022-09-01T05:51:50.886Z,100.00
2022-09-01T05:54:27.383Z,100.00
2022-09-01T05:56:57.765Z,100.00
2022-09-01T05:59:31.550Z,100.00
2022-09-01T06:01:58.838Z,100.00
2022-09-01T06:04:26.861Z,100.00
2022-09-01T06:07:05.776Z,100.00
2022-09-01T06:09:38.175Z,100.00
2022-09-01T06:12:06.744Z,100.00
2022-09-01T06:14:34.134Z,100.00
2022-09-01T06:17:00.999Z,100.00
2022-09-01T06:19:28.471Z,100.00
2022-09-01T06:21:56.874Z,100.00
2022-09-01T06:24:23.592Z,100.00
2022-09-01T06:26:50.368Z,100.00
2022-09-01T06:29:17.059Z,100.00
2022-09-01T06:31:51.745Z,100.00
2022-09-01T06:34:19.595Z,100.00
2022-09-01T06:36:49.583Z,100.00
2022-09-01T06:39:26.601Z,100.00
2022-09-01T06:41:54.776Z,100.00
2022-09-01T06:44:24.959Z,100.00
2022-09-01T06:46:52.625Z,100.00
2022-09-01T06:49:21.496Z,100.00
2022-09-01T06:51:49.688Z,100.00
2022-09-01T06:54:19.927Z,100.00
2022-09-01T06:56:51.363Z,100.00
2022-09-01T06:59:19.924Z,100.00
2022-09-01T07:01:49.028Z,100.00
2022-09-01T07:04:21.480Z,100.00
2022-09-01T07:07:00.097Z,100.00
2022-09-01T07:09:47.098Z,100.00
2022-09-01T07:12:27.017Z,100.00
2022-09-01T07:17:43.159Z,100.00
2022-09-01T07:20:27.261Z,100.00
2022-09-01T07:23:04.515Z,100.00
2022-09-01T07:25:48.423Z,100.00
2022-09-01T07:28:25.478Z,100.00
2022-09-01T07:30:55.260Z,100.00
2022-09-01T07:33:44.171Z,100.00
2022-09-01T07:36:27.177Z,100.00
2022-09-01T07:44:28.821Z,100.00
2022-09-01T07:52:31.558Z,100.00
2022-09-01T07:54:58.200Z,98.94
2022-09-01T07:57:24.945Z,100.00
2022-09-01T07:59:55.637Z,100.00
2022-09-01T08:02:22.414Z,98.33
2022-09-01T08:04:49.124Z,100.00
2022-09-01T08:07:16.366Z,94.80
2022-09-01T08:09:44.114Z,91.13
2022-09-01T08:12:11.489Z,97.79
2022-09-01T08:14:38.208Z,98.23
2022-09-01T08:19:53.597Z,78.88
2022-09-01T08:22:25.226Z,80.26
2022-09-01T08:24:53.433Z,84.21
2022-09-01T08:27:20.787Z,79.97
2022-09-01T08:29:48.833Z,76.58
2022-09-01T08:32:15.504Z,72.35
2022-09-01T08:34:43.517Z,74.30
2022-09-01T08:37:10.075Z,70.91
2022-09-01T08:39:36.683Z,71.45
2022-09-01T08:42:41.696Z,74.18
2022-09-01T08:45:11.061Z,70.20
2022-09-01T08:47:58.366Z,67.41
2022-09-01T08:50:25.535Z,64.92
2022-09-01T08:53:10.749Z,60.12
2022-09-01T08:55:43.910Z,59.34
2022-09-01T08:58:15.202Z,59.43
2022-09-01T09:00:50.516Z,59.95
2022-09-01T09:03:40.578Z,59.21
2022-09-01T09:06:16.399Z,56.39
2022-09-01T09:08:58.019Z,57.30
2022-09-01T09:11:27.396Z,56.60
2022-09-01T09:13:59.885Z,54.63
2022-09-01T09:16:32.686Z,58.08
2022-09-01T09:19:06.495Z,56.71
2022-09-01T09:21:37.421Z,57.36
2022-09-01T09:24:10.551Z,58.04
2022-09-01T09:26:44.791Z,57.88
2022-09-01T09:29:11.649Z,58.69
2022-09-01T09:31:45.898Z,59.03
2022-09-01T09:34:27.808Z,58.69
2022-09-01T09:36:57.025Z,53.81
2022-09-01T09:39:23.906Z,53.77
2022-09-01T09:42:07.822Z,53.72
2022-09-01T09:44:41.431Z,53.61
2022-09-01T09:47:27.258Z,53.76
2022-09-01T09:50:38.164Z,52.44
2022-09-01T09:53:27.251Z,54.61
2022-09-01T09:56:19.804Z,53.64
2022-09-01T09:58:48.756Z,51.28
2022-09-01T10:01:30.706Z,53.00
2022-09-01T10:04:00.510Z,51.59
2022-09-01T10:06:36.195Z,51.26
2022-09-01T10:09:04.792Z,52.29
2022-09-01T10:11:35.619Z,50.60
2022-09-01T10:14:06.248Z,52.30
2022-09-01T10:16:37.668Z,50.75
2022-09-01T10:19:12.563Z,50.95
2022-09-01T10:21:42.691Z,48.52
2022-09-01T10:24:17.356Z,48.75
2022-09-01T10:26:52.974Z,47.41
2022-09-01T10:29:34.758Z,47.76
2022-09-01T10:32:30.758Z,47.84
2022-09-01T10:34:56.158Z,45.95
2022-09-01T10:37:27.635Z,47.03
2022-09-01T10:40:34.707Z,45.00
2022-09-01T10:43:25.224Z,43.80
2022-09-01T10:45:57.903Z,44.96
2022-09-01T10:48:46.230Z,45.99
2022-09-01T10:51:19.204Z,43.87
2022-09-01T10:53:52.598Z,42.90
2022-09-01T10:56:51.339Z,43.95
2022-09-01T10:59:40.104Z,44.87
2022-09-01T11:02:26.971Z,43.46
2022-09-01T11:04:54.505Z,44.44
2022-09-01T11:07:50.084Z,43.46
2022-09-01T11:10:35.794Z,44.21
2022-09-01T11:13:21.759Z,44.50
2022-09-01T11:15:48.951Z,42.59
2022-09-01T11:18:26.075Z,41.64
2022-09-01T11:20:55.426Z,40.55
2022-09-01T11:23:30.611Z,41.61
2022-09-01T11:26:32.406Z,42.43
2022-09-01T11:28:59.518Z,42.74
2022-09-01T11:31:31.143Z,41.80
2022-09-01T11:34:13.841Z,40.83
2022-09-01T11:36:47.416Z,39.55
2022-09-01T11:39:17.853Z,39.57
2022-09-01T11:41:51.747Z,39.59
2022-09-01T11:44:42.769Z,39.97
2022-09-01T11:47:19.181Z,39.87
2022-09-01T11:49:56.990Z,38.46
2022-09-01T11:52:27.973Z,38.79
2022-09-01T11:54:54.739Z,39.39
2022-09-01T11:57:22.955Z,39.46
2022-09-01T11:59:50.384Z,36.98
2022-09-01T12:02:19.049Z,37.05
2022-09-01T12:04:46.354Z,36.86
2022-09-01T12:07:43.089Z,36.35
2022-09-01T12:10:22.035Z,36.49
2022-09-01T12:12:48.592Z,37.08
2022-09-01T12:15:25.343Z,36.47
2022-09-01T12:17:53.691Z,36.56
2022-09-01T12:20:29.405Z,34.82
2022-09-01T12:22:58.387Z,34.61
2022-09-01T12:25:30.399Z,34.32
2022-09-01T12:28:00.147Z,35.83
2022-09-01T12:30:26.894Z,34.82
2022-09-01T12:33:22.809Z,32.30
2022-09-01T12:35:41.886Z,29.27
2022-09-01T12:38:20.735Z,29.08
2022-09-01T12:40:50.336Z,29.76
2022-09-01T12:43:29.239Z,29.63
2022-09-01T12:45:57.447Z,29.36
2022-09-01T12:48:38.069Z,27.90
2022-09-01T12:51:24.532Z,27.65
2022-09-01T12:53:58.550Z,26.02
2022-09-01T12:56:36.167Z,26.28
2022-09-01T12:59:14.143Z,27.51
2022-09-01T13:01:42.978Z,26.62
2022-09-01T13:04:22.381Z,26.36
2022-09-01T13:06:49.839Z,26.44
2022-09-01T13:09:16.446Z,26.02
2022-09-01T13:14:31.721Z,24.12
2022-09-01T13:16:58.340Z,22.75
2022-09-01T13:19:28.814Z,23.83
2022-09-01T13:21:57.347Z,22.81
2022-09-01T13:24:28.688Z,22.01
2022-09-01T13:29:43.822Z,21.72
2022-09-01T13:32:19.336Z,22.46
2022-09-01T13:34:47.334Z,20.46
2022-09-01T13:37:14.123Z,20.13
2022-09-01T13:39:40.671Z,19.43
2022-09-01T13:42:07.390Z,18.68
2022-09-01T13:44:35.425Z,19.03
2022-09-01T13:47:28.780Z,18.41
2022-09-01T13:52:35.766Z,18.18
2022-09-01T13:55:02.438Z,18.45
2022-09-01T13:57:31.526Z,18.25
2022-09-01T14:00:10.997Z,17.34
2022-09-01T14:02:43.062Z,17.00
2022-09-01T14:05:10.529Z,17.67
2022-09-01T14:07:37.524Z,17.52
2022-09-01T14:10:05.070Z,16.73
2022-09-01T14:12:32.587Z,17.08
2022-09-01T14:17:56.229Z,16.83
2022-09-01T14:20:25.796Z,18.22
2022-09-01T14:22:52.705Z,17.63
2022-09-01T14:25:20.629Z,17.46
2022-09-01T14:27:48.996Z,16.82
2022-09-01T14:30:30.461Z,15.42
2022-09-01T14:33:01.533Z,15.79
2022-09-01T14:35:30.738Z,16.81
2022-09-01T14:37:59.004Z,15.97
2022-09-01T14:40:26.070Z,16.73
2022-09-01T14:42:53.191Z,15.60
2022-09-01T14:45:25.513Z,16.17
2022-09-01T14:47:54.930Z,16.63
2022-09-01T14:50:23.684Z,16.41
2022-09-01T14:52:54.412Z,16.94
2022-09-01T14:55:25.721Z,17.40
2022-09-01T14:57:52.465Z,17.62
2022-09-01T15:00:19.883Z,17.09
2022-09-01T15:02:47.421Z,16.73
2022-09-01T15:05:14.566Z,17.57
2022-09-01T15:07:42.715Z,16.71
2022-09-01T15:10:15.792Z,18.11
2022-09-01T15:12:47.135Z,17.96
2022-09-01T15:15:13.862Z,17.77
2022-09-01T15:17:43.344Z,17.57
2022-09-01T15:20:31.429Z,17.62
2022-09-01T15:22:58.691Z,17.08
2022-09-01T15:25:25.601Z,17.59
2022-09-01T15:27:52.602Z,17.48
2022-09-01T15:30:20.251Z,18.92
2022-09-01T15:32:49.079Z,19.26
2022-09-01T15:35:16.203Z,20.17
2022-09-01T15:37:43.409Z,20.98
2022-09-01T15:40:10.492Z,22.06
2022-09-01T15:42:38.180Z,22.35
2022-09-01T15:45:08.329Z,22.02
2022-09-01T15:47:35.415Z,23.37
2022-09-01T15:50:06.955Z,24.63
2022-09-01T15:52:34.767Z,24.41
2022-09-01T15:55:03.257Z,24.16
2022-09-01T15:57:29.864Z,24.54
2022-09-01T15:59:57.402Z,25.38
2022-09-01T16:02:27.743Z,25.76
2022-09-01T16:04:56.759Z,26.23
2022-09-01T16:07:23.770Z,26.90
2022-09-01T16:09:57.867Z,26.79
2022-09-01T16:12:26.527Z,27.79
2022-09-01T16:14:55.189Z,28.08
2022-09-01T16:17:45.173Z,28.62
2022-09-01T16:20:21.833Z,28.96
2022-09-01T16:22:55.516Z,28.83
2022-09-01T16:25:30.035Z,30.96
2022-09-01T16:27:57.598Z,30.85
2022-09-01T16:30:29.119Z,30.93
2022-09-01T16:33:02.754Z,32.15
2022-09-01T16:35:44.797Z,32.27
2022-09-01T16:38:20.582Z,33.45
2022-09-01T16:40:57.904Z,33.75
2022-09-01T16:43:37.574Z,34.00
2022-09-01T16:46:19.471Z,33.34
2022-09-01T16:48:47.199Z,34.94
2022-09-01T16:51:19.126Z,35.35
2022-09-01T16:53:54.147Z,35.84
2022-09-01T16:56:35.574Z,36.73
2022-09-01T16:59:24.756Z,36.50
2022-09-01T17:02:00.038Z,36.09
2022-09-01T17:04:29.434Z,38.09
2022-09-01T17:07:09.110Z,40.78
2022-09-01T17:09:40.713Z,41.33
2022-09-01T17:12:27.580Z,40.80
2022-09-01T17:15:06.866Z,43.80
2022-09-01T17:17:47.789Z,45.31
2022-09-01T17:20:16.237Z,47.95
2022-09-01T17:22:57.060Z,49.08
2022-09-01T17:25:33.717Z,48.92
2022-09-01T17:28:04.393Z,51.73
2022-09-01T17:30:36.246Z,50.74
2022-09-01T17:33:34.546Z,53.13
2022-09-01T17:36:03.941Z,56.83
2022-09-01T17:39:03.291Z,52.69
2022-09-01T17:41:34.367Z,50.10
2022-09-01T17:44:12.854Z,49.96
2022-09-01T17:47:12.015Z,54.77
2022-09-01T17:49:53.321Z,62.75
2022-09-01T17:52:40.773Z,55.17
2022-09-01T17:55:38.186Z,54.04
2022-09-01T17:58:10.355Z,54.82
2022-09-01T18:00:52.852Z,56.73
2022-09-01T18:03:44.032Z,54.84
2022-09-01T18:06:15.700Z,57.92
2022-09-01T18:08:44.822Z,60.12
2022-09-01T18:11:50.474Z,60.05
2022-09-01T18:14:58.424Z,63.19
2022-09-01T18:17:29.068Z,64.40
2022-09-01T18:20:09.929Z,66.27
2022-09-01T18:22:47.336Z,69.17
2022-09-01T18:25:23.068Z,72.02
2022-09-01T18:27:50.058Z,70.83
2022-09-01T18:30:36.360Z,71.76
2022-09-01T18:33:37.139Z,69.98
2022-09-01T18:36:41.249Z,74.80
2022-09-01T18:39:29.466Z,76.32
2022-09-01T18:42:19.091Z,79.25
2022-09-01T18:45:24.801Z,79.65
2022-09-01T18:48:09.156Z,79.88
2022-09-01T18:51:03.454Z,80.21
2022-09-01T18:53:44.642Z,80.41
2022-09-01T18:56:25.090Z,76.51
2022-09-01T18:58:51.761Z,84.94
2022-09-01T19:01:40.882Z,86.79
2022-09-01T19:04:31.926Z,90.31
2022-09-01T19:07:01.711Z,92.48
2022-09-01T19:09:42.542Z,92.80
2022-09-01T19:12:41.211Z,95.10
2022-09-01T19:15:25.725Z,94.30
2022-09-01T19:18:12.817Z,99.28
2022-09-01T19:21:02.620Z,98.07
2022-09-01T19:23:36.066Z,98.87
2022-09-01T19:26:07.635Z,97.95
2022-09-01T19:28:40.196Z,99.45
2022-09-01T19:31:17.940Z,99.83
2022-09-01T19:33:51.070Z,100.00
2022-09-01T19:36:35.575Z,95.08
2022-09-01T19:39:02.524Z,89.47
2022-09-01T19:41:53.721Z,85.74
2022-09-01T19:44:54.898Z,88.49
2022-09-01T19:47:36.915Z,96.37
2022-09-01T19:50:06.445Z,95.38
2022-09-01T19:52:49.425Z,93.97
2022-09-01T19:55:36.650Z,88.87
2022-09-01T19:58:15.131Z,92.55
2022-09-01T20:00:53.519Z,96.28
2022-09-01T20:03:28.805Z,91.66
2022-09-01T20:06:05.046Z,98.37
2022-09-01T20:08:41.776Z,91.85
2022-09-01T20:11:18.879Z,97.96
2022-09-01T20:14:03.399Z,97.77
2022-09-01T20:16:41.708Z,100.00
2022-09-01T20:19:24.418Z,100.00
2022-09-01T20:21:51.073Z,99.19
2022-09-01T20:24:39.635Z,100.00
2022-09-01T20:27:33.987Z,100.00
2022-09-01T20:30:07.600Z,100.00
2022-09-01T20:32:59.807Z,100.00
2022-09-01T20:35:39.941Z,100.00
2022-09-01T20:38:36.741Z,97.92
2022-09-01T20:41:19.499Z,96.53
2022-09-01T20:43:51.725Z,98.07
2022-09-01T20:46:20.554Z,94.27
2022-09-01T20:48:48.023Z,95.78
2022-09-01T20:51:27.615Z,96.85
2022-09-01T20:54:23.181Z,99.02
2022-09-01T20:57:05.030Z,96.43
2022-09-01T21:00:07.947Z,98.67
2022-09-01T21:02:34.686Z,98.61
2022-09-01T21:05:01.303Z,97.77
2022-09-01T21:07:48.721Z,99.72
2022-09-01T21:10:45.207Z,100.00
2022-09-01T21:13:18.964Z,100.00
2022-09-01T21:15:59.268Z,100.00
2022-09-01T21:19:27.471Z,100.00
2022-09-01T21:22:07.846Z,100.00
2022-09-01T21:24:35.472Z,100.00
2022-09-01T21:27:07.590Z,100.00
2022-09-01T21:30:00.288Z,100.00
2022-09-01T21:32:29.211Z,100.00
2022-09-01T21:34:56.635Z,100.00
2022-09-01T21:37:24.827Z,100.00
2022-09-01T21:39:53.902Z,100.00
2022-09-01T21:42:24.065Z,100.00
2022-09-01T21:44:52.102Z,100.00
2022-09-01T21:47:21.703Z,100.00
2022-09-01T21:49:48.350Z,100.00
2022-09-01T21:52:15.021Z,100.00
2022-09-01T21:54:41.683Z,100.00
2022-09-01T21:57:08.307Z,100.00
2022-09-01T21:59:34.978Z,100.00
2022-09-01T22:02:02.128Z,100.00
2022-09-01T22:04:28.718Z,100.00
2022-09-01T22:06:55.345Z,100.00
2022-09-01T22:09:21.985Z,100.00
2022-09-01T22:11:50.453Z,100.00
2022-09-01T22:14:18.514Z,100.00
2022-09-01T22:16:45.117Z,100.00
2022-09-01T22:19:12.169Z,100.00
2022-09-01T22:21:39.845Z,100.00
2022-09-01T22:24:06.721Z,100.00
2022-09-01T22:26:34.283Z,100.00
2022-09-01T22:29:05.625Z,100.00
2022-09-01T22:31:34.734Z,100.00
2022-09-01T22:34:01.297Z,100.00
2022-09-01T22:36:34.755Z,100.00
2022-09-01T22:39:01.857Z,100.00
2022-09-01T22:41:30.634Z,100.00
2022-09-01T22:44:00.181Z,100.00
2022-09-01T22:46:29.252Z,100.00
2022-09-01T22:48:57.361Z,100.00
2022-09-01T22:51:24.970Z,100.00
2022-09-01T22:53:54.293Z,100.00
2022-09-01T22:56:24.168Z,100.00
2022-09-01T22:58:54.313Z,100.00
2022-09-01T23:01:25.238Z,100.00
2022-09-01T23:03:52.376Z,100.00
2022-09-01T23:06:28.149Z,100.00
2022-09-01T23:08:57.223Z,100.00
2022-09-01T23:11:24.593Z,100.00
2022-09-01T23:13:51.689Z,100.00
2022-09-01T23:16:20.675Z,100.00
2022-09-01T23:18:49.029Z,100.00
2022-09-01T23:21:19.323Z,100.00
2022-09-01T23:23:46.685Z,100.00
2022-09-01T23:26:14.476Z,100.00
2022-09-01T23:28:42.886Z,100.00
2022-09-01T23:31:16.874Z,100.00
2022-09-01T23:33:44.037Z,100.00
2022-09-01T23:36:13.861Z,100.00
2022-09-01T23:38:41.277Z,100.00
2022-09-01T23:41:13.984Z,100.00
2022-09-01T23:43:40.654Z,100.00
2022-09-01T23:46:08.095Z,100.00
2022-09-01T23:48:34.767Z,100.00
2022-09-01T23:51:08.654Z,100.00
2022-09-01T23:53:36.520Z,100.00
2022-09-01T23:56:08.027Z,100.00
2022-09-01T23:58:34.751Z,100.00
